Time;durP1;ratioP1;P1;durP2;ratioP2;P2;SDS_P1;SDS_P2;PMS_P1;PMS_P2;Temp;Humidity;BMP_temperature;BMP_pressure;BME280_temperature;BME280_humidity;BME280_pressure;Samples;Min_cycle;Max_cycle;Signal;HPM_P1;HPM_P2
2022/10/07 00:01:57;;;;;;;52.33;43.67;;;19.40;1.00;;;;;;5093730;28;20115;-49
2022/10/07 00:04:23;;;;;;;60.50;46.03;;;19.40;1.00;;;;;;5091374;28;20028;-48
2022/10/07 00:06:48;;;;;;;55.80;44.30;;;19.40;1.00;;;;;;5089627;28;20350;-51
2022/10/07 00:09:14;;;;;;;62.42;46.15;;;19.40;1.00;;;;;;5090166;28;20016;-49
2022/10/07 00:11:39;;;;;;;60.75;47.47;;;19.40;1.00;;;;;;5085255;28;20034;-47
2022/10/07 00:14:06;;;;;;;56.13;45.08;;;19.40;1.00;;;;;;5090990;28;20016;-47
2022/10/07 00:16:37;;;;;;;56.08;45.30;;;19.40;1.00;;;;;;5084239;28;20048;-48
2022/10/07 00:19:06;;;;;;;62.17;46.45;;;19.40;1.00;;;;;;5089053;28;20112;-47
2022/10/07 00:21:33;;;;;;;56.17;46.15;;;19.30;1.00;;;;;;5073554;28;20025;-47
2022/10/07 00:24:00;;;;;;;58.53;46.08;;;19.30;1.00;;;;;;5090256;28;20111;-48
2022/10/07 00:26:28;;;;;;;56.45;44.83;;;19.30;1.00;;;;;;5089096;28;20490;-49
2022/10/07 00:28:54;;;;;;;55.38;43.53;;;19.30;1.00;;;;;;5084299;28;20113;-48
2022/10/07 00:31:32;;;;;;;56.10;45.35;;;19.30;1.00;;;;;;5088505;28;20025;-48
2022/10/07 00:33:58;;;;;;;57.67;45.92;;;19.20;1.00;;;;;;5089080;28;20021;-50
2022/10/07 00:36:26;;;;;;;56.28;45.15;;;19.20;1.00;;;;;;5094236;28;20028;-48
2022/10/07 00:38:57;;;;;;;54.30;45.58;;;19.30;1.00;;;;;;5086529;28;20050;-48
2022/10/07 00:41:25;;;;;;;56.90;44.58;;;19.20;1.00;;;;;;5086733;28;20028;-50
2022/10/07 00:43:51;;;;;;;64.03;47.05;;;19.20;1.00;;;;;;5095705;28;20035;-51
2022/10/07 00:46:28;;;;;;;56.30;45.13;;;19.30;1.00;;;;;;5093732;28;20474;-49
2022/10/07 00:49:00;;;;;;;58.30;46.30;;;19.20;1.00;;;;;;5090061;28;20024;-50
2022/10/07 00:51:26;;;;;;;60.17;45.60;;;19.20;1.00;;;;;;5075096;28;20035;-49
2022/10/07 00:53:53;;;;;;;55.67;44.45;;;19.20;1.00;;;;;;5093617;28;20111;-49
2022/10/07 00:56:20;;;;;;;59.13;45.25;;;19.10;1.00;;;;;;5094034;28;20111;-52
2022/10/07 00:58:47;;;;;;;55.25;43.85;;;19.20;1.00;;;;;;5090132;28;20077;-47
2022/10/07 01:01:13;;;;;;;58.55;45.40;;;19.20;1.00;;;;;;5085286;28;20021;-48
2022/10/07 01:03:39;;;;;;;58.85;45.78;;;19.10;1.00;;;;;;5089755;28;20078;-48
2022/10/07 01:06:05;;;;;;;55.35;43.75;;;19.10;1.00;;;;;;5090728;28;20035;-50
2022/10/07 01:08:31;;;;;;;54.53;44.38;;;19.10;1.00;;;;;;5092053;28;20111;-52
2022/10/07 01:11:47;;;;;;;58.00;45.28;;;19.10;1.00;;;;;;5087637;28;20024;-52
2022/10/07 01:14:28;;;;;;;57.60;43.75;;;19.10;1.00;;;;;;5073422;28;20036;-49
2022/10/07 01:17:20;;;;;;;57.42;45.17;;;19.10;1.00;;;;;;5091994;28;20031;-49
2022/10/07 01:20:27;;;;;;;58.65;43.72;;;19.00;1.00;;;;;;5081789;28;20382;-47
2022/10/07 01:23:31;;;;;;;64.90;44.17;;;19.10;1.00;;;;;;5091168;28;20024;-47
2022/10/07 01:26:31;;;;;;;59.10;42.92;;;19.00;1.00;;;;;;5080757;28;20474;-48
2022/10/07 01:29:02;;;;;;;57.33;44.72;;;19.00;1.00;;;;;;5079093;28;20103;-48
2022/10/07 01:31:37;;;;;;;58.13;45.10;;;19.00;1.00;;;;;;5093305;28;20418;-51
2022/10/07 01:34:05;;;;;;;56.80;44.50;;;19.00;1.00;;;;;;5076221;28;20490;-48
2022/10/07 01:36:35;;;;;;;58.05;45.30;;;19.00;1.00;;;;;;5083810;28;20043;-48
2022/10/07 01:39:07;;;;;;;62.72;45.95;;;19.00;1.00;;;;;;5092567;28;20482;-47
2022/10/07 01:41:35;;;;;;;60.67;46.70;;;19.00;1.00;;;;;;5084400;28;20476;-48
2022/10/07 01:44:01;;;;;;;60.15;44.63;;;18.90;1.00;;;;;;5075809;28;20029;-49
2022/10/07 01:46:29;;;;;;;57.08;43.83;;;18.90;1.00;;;;;;5080619;28;20031;-48
2022/10/07 01:48:55;;;;;;;56.00;45.45;;;18.90;1.00;;;;;;5089371;28;20024;-48
2022/10/07 01:51:24;;;;;;;61.58;45.08;;;18.90;1.00;;;;;;5093564;28;20028;-48
2022/10/07 01:54:33;;;;;;;59.00;45.13;;;18.80;1.00;;;;;;5088049;28;20064;-46
2022/10/07 01:57:26;;;;;;;59.33;46.80;;;18.80;1.00;;;;;;5082495;28;20032;-47
2022/10/07 02:00:11;;;;;;;59.22;46.47;;;18.90;1.00;;;;;;5089037;28;20042;-47
2022/10/07 02:02:53;;;;;;;61.08;45.97;;;18.80;1.00;;;;;;5084154;28;20039;-47
2022/10/07 02:05:34;;;;;;;61.45;46.75;;;18.80;1.00;;;;;;5093479;28;20024;-46
2022/10/07 02:08:10;;;;;;;55.22;45.30;;;18.80;1.00;;;;;;5092071;28;20031;-48
2022/10/07 02:10:36;;;;;;;56.65;45.30;;;18.80;1.00;;;;;;5089526;28;20111;-48
2022/10/07 02:13:11;;;;;;;55.15;44.47;;;18.80;1.00;;;;;;5085163;28;20236;-48
2022/10/07 02:16:01;;;;;;;59.58;44.75;;;18.80;1.00;;;;;;5087820;28;20020;-48
2022/10/07 02:18:30;;;;;;;60.45;46.10;;;18.80;1.00;;;;;;5092850;28;20036;-47
2022/10/07 02:20:56;;;;;;;56.58;44.55;;;18.70;1.00;;;;;;5091242;28;20047;-48
2022/10/07 02:23:24;;;;;;;55.80;45.50;;;18.70;1.00;;;;;;5084772;28;20024;-49
2022/10/07 02:25:52;;;;;;;58.65;44.10;;;18.70;1.00;;;;;;5091025;28;20028;-47
2022/10/07 02:28:21;;;;;;;60.75;46.45;;;18.70;1.00;;;;;;5091376;28;20036;-49
2022/10/07 02:30:52;;;;;;;55.38;44.33;;;18.70;1.00;;;;;;5088916;28;20016;-50
2022/10/07 02:33:19;;;;;;;56.38;45.08;;;18.70;1.00;;;;;;5095823;28;20505;-48
2022/10/07 02:35:50;;;;;;;55.17;43.45;;;18.70;1.00;;;;;;5087098;28;20022;-48
2022/10/07 02:38:17;;;;;;;55.47;44.65;;;18.60;1.00;;;;;;5085964;28;20036;-51
2022/10/07 02:41:04;;;;;;;59.25;46.53;;;18.60;1.00;;;;;;5081246;28;20105;-48
2022/10/07 02:43:40;;;;;;;56.78;44.08;;;18.60;1.00;;;;;;5082704;28;20024;-48
2022/10/07 02:46:09;;;;;;;57.00;44.60;;;18.60;1.00;;;;;;5087432;28;20028;-46
2022/10/07 02:48:44;;;;;;;63.42;46.70;;;18.60;1.00;;;;;;5089386;28;20111;-47
2022/10/07 02:51:17;;;;;;;56.53;43.72;;;18.50;1.00;;;;;;5089023;28;20032;-48
2022/10/07 02:53:45;;;;;;;54.83;42.30;;;18.50;1.00;;;;;;5086110;28;20048;-47
2022/10/07 02:56:11;;;;;;;56.47;44.05;;;18.60;1.00;;;;;;5089791;28;20024;-47
2022/10/07 02:58:43;;;;;;;58.60;45.33;;;18.50;1.00;;;;;;5086718;28;20442;-47
2022/10/07 03:01:11;;;;;;;60.28;47.33;;;18.50;1.00;;;;;;5090181;28;20020;-47
2022/10/07 03:03:37;;;;;;;59.55;46.63;;;18.50;1.00;;;;;;5087571;28;20456;-48
2022/10/07 03:06:03;;;;;;;59.55;45.10;;;18.50;1.00;;;;;;5090409;28;20039;-46
2022/10/07 03:08:29;;;;;;;57.03;45.47;;;18.40;1.00;;;;;;5088267;28;20084;-50
2022/10/07 03:10:54;;;;;;;63.45;47.47;;;18.50;1.00;;;;;;5088641;28;20027;-47
2022/10/07 03:13:21;;;;;;;60.38;45.25;;;18.50;1.00;;;;;;5088698;28;20095;-49
2022/10/07 03:15:47;;;;;;;54.92;43.95;;;18.40;1.00;;;;;;5089713;28;20448;-48
2022/10/07 03:18:33;;;;;;;56.47;44.25;;;18.50;1.00;;;;;;5090979;28;20450;-47
2022/10/07 03:20:59;;;;;;;55.65;44.33;;;18.40;1.00;;;;;;5085901;28;20079;-47
2022/10/07 03:23:28;;;;;;;56.47;42.78;;;18.40;1.00;;;;;;5083229;28;20044;-48
2022/10/07 03:25:54;;;;;;;57.08;45.50;;;18.40;1.00;;;;;;5079486;28;20021;-48
2022/10/07 03:28:22;;;;;;;55.05;44.63;;;18.40;1.00;;;;;;5087828;28;20330;-51
2022/10/07 03:30:49;;;;;;;58.78;46.70;;;18.40;1.00;;;;;;5088532;28;20020;-48
2022/10/07 03:33:16;;;;;;;60.15;44.05;;;18.40;1.00;;;;;;5090647;28;20028;-50
2022/10/07 03:35:41;;;;;;;55.17;43.72;;;18.40;1.00;;;;;;5084159;28;20114;-51
2022/10/07 03:38:07;;;;;;;58.97;46.35;;;18.30;1.00;;;;;;5077833;28;20052;-49
2022/10/07 03:40:34;;;;;;;60.00;43.83;;;18.30;1.00;;;;;;5080527;28;20051;-52
2022/10/07 03:43:01;;;;;;;51.95;40.88;;;18.30;1.00;;;;;;5074933;28;20027;-47
2022/10/07 03:45:28;;;;;;;54.35;43.33;;;18.30;1.00;;;;;;5085919;28;20074;-50
2022/10/07 03:47:54;;;;;;;56.67;40.97;;;18.30;1.00;;;;;;5089257;28;20036;-47
2022/10/07 03:50:19;;;;;;;58.13;41.67;;;18.30;1.00;;;;;;5086855;28;20020;-46
2022/10/07 03:52:45;;;;;;;55.05;41.22;;;18.30;1.00;;;;;;5089650;28;20123;-47
2022/10/07 03:55:10;;;;;;;53.40;42.85;;;18.30;1.00;;;;;;5090977;28;20028;-49
2022/10/07 03:57:56;;;;;;;53.55;42.22;;;18.30;1.00;;;;;;5089617;28;20031;-48
2022/10/07 04:00:23;;;;;;;54.15;44.22;;;18.30;1.00;;;;;;5080605;28;20035;-49
2022/10/07 04:02:50;;;;;;;51.92;43.70;;;18.30;1.00;;;;;;5087177;28;20031;-49
2022/10/07 04:05:17;;;;;;;54.55;41.63;;;18.30;1.00;;;;;;5088605;28;20085;-47
2022/10/07 04:07:47;;;;;;;49.90;40.45;;;18.30;1.00;;;;;;5088772;28;20504;-49
2022/10/07 04:10:15;;;;;;;55.92;42.25;;;18.20;1.00;;;;;;5093865;28;20012;-49
2022/10/07 04:12:41;;;;;;;51.72;41.55;;;18.20;1.00;;;;;;5093752;28;20036;-49
2022/10/07 04:15:12;;;;;;;50.45;39.30;;;18.20;1.00;;;;;;5087868;28;20074;-47
2022/10/07 04:17:38;;;;;;;51.42;39.88;;;18.20;1.00;;;;;;5092390;28;20028;-48
2022/10/07 04:20:04;;;;;;;49.80;39.40;;;18.10;1.00;;;;;;5091424;28;20039;-47
2022/10/07 04:22:30;;;;;;;50.15;39.38;;;18.10;1.00;;;;;;5091339;28;20024;-49
2022/10/07 04:27:41;;;;;;;47.80;39.42;;;18.10;1.00;;;;;;5082235;28;20107;-47
2022/10/07 04:30:07;;;;;;;49.92;39.45;;;18.10;1.00;;;;;;5091362;28;20546;-48
2022/10/07 04:32:33;;;;;;;55.13;40.17;;;18.10;1.00;;;;;;5094230;28;20024;-47
2022/10/07 04:35:00;;;;;;;51.88;39.15;;;18.10;1.00;;;;;;5093783;28;20042;-50
2022/10/07 04:37:27;;;;;;;53.50;40.10;;;18.10;1.00;;;;;;5091527;28;20134;-50
2022/10/07 04:39:52;;;;;;;50.15;40.30;;;18.10;1.00;;;;;;5084670;28;20064;-48
2022/10/07 04:45:02;;;;;;;52.45;39.33;;;18.10;1.00;;;;;;5087481;28;20460;-52
2022/10/07 04:47:27;;;;;;;47.47;38.63;;;18.10;1.00;;;;;;5091612;28;20110;-52
2022/10/07 04:49:53;;;;;;;49.72;38.85;;;18.10;1.00;;;;;;5091561;28;20480;-51
2022/10/07 04:52:19;;;;;;;52.58;39.13;;;18.10;1.00;;;;;;5087587;28;20044;-51
2022/10/07 04:54:46;;;;;;;49.75;38.08;;;18.00;1.00;;;;;;5083512;28;20021;-48
2022/10/07 04:57:14;;;;;;;51.85;38.55;;;18.00;1.00;;;;;;5092123;28;20137;-48
2022/10/07 04:59:40;;;;;;;54.85;39.38;;;18.00;1.00;;;;;;5092754;28;20129;-48
2022/10/07 05:02:06;;;;;;;50.70;37.58;;;18.00;1.00;;;;;;5080496;28;20036;-47
2022/10/07 05:04:31;;;;;;;49.30;36.95;;;18.00;1.00;;;;;;5092011;28;20035;-53
2022/10/07 05:06:57;;;;;;;50.60;38.90;;;18.00;1.00;;;;;;5091634;28;20481;-47
2022/10/07 05:09:22;;;;;;;54.30;39.72;;;18.00;1.00;;;;;;5090548;28;20028;-48
2022/10/07 05:11:51;;;;;;;51.10;40.60;;;18.00;1.00;;;;;;5092645;28;20020;-47
2022/10/07 05:14:20;;;;;;;52.75;39.28;;;18.00;1.00;;;;;;5090656;28;20020;-51
2022/10/07 05:16:49;;;;;;;55.10;40.55;;;18.00;1.00;;;;;;5085062;28;20340;-49
2022/10/07 05:19:15;;;;;;;53.83;39.55;;;18.00;1.00;;;;;;5087610;28;20059;-48
2022/10/07 05:21:41;;;;;;;49.85;39.33;;;18.00;1.00;;;;;;5090075;28;20028;-48
2022/10/07 05:24:07;;;;;;;51.58;39.58;;;18.00;1.00;;;;;;5093301;28;20032;-48
2022/10/07 05:26:33;;;;;;;47.78;37.65;;;17.90;1.00;;;;;;5089282;28;20035;-48
2022/10/07 05:28:59;;;;;;;50.83;39.75;;;18.00;1.00;;;;;;5086703;28;20032;-49
2022/10/07 05:31:26;;;;;;;48.83;37.58;;;17.90;1.00;;;;;;5086221;28;20029;-49
2022/10/07 05:33:52;;;;;;;48.97;37.83;;;17.90;1.00;;;;;;5087718;28;20039;-48
2022/10/07 05:36:18;;;;;;;49.05;38.60;;;17.90;1.00;;;;;;5091878;28;20028;-51
2022/10/07 05:38:44;;;;;;;48.42;37.85;;;17.90;1.00;;;;;;5086095;28;20039;-49
2022/10/07 05:41:11;;;;;;;46.80;35.85;;;17.90;1.00;;;;;;5086794;28;20020;-47
2022/10/07 05:43:41;;;;;;;43.05;35.25;;;17.90;1.00;;;;;;5091649;28;20039;-47
2022/10/07 05:46:11;;;;;;;45.17;35.35;;;17.90;1.00;;;;;;5092308;28;20066;-47
2022/10/07 05:48:38;;;;;;;47.33;37.47;;;17.90;1.00;;;;;;5092145;28;20386;-48
2022/10/07 05:51:05;;;;;;;44.90;36.58;;;17.90;1.00;;;;;;5087524;28;20036;-48
2022/10/07 05:53:31;;;;;;;46.00;34.63;;;17.80;1.00;;;;;;5091604;28;20184;-50
2022/10/07 05:55:56;;;;;;;43.22;35.55;;;17.90;1.00;;;;;;5085847;28;20401;-48
2022/10/07 05:58:22;;;;;;;45.78;35.83;;;17.90;1.00;;;;;;5084734;28;20039;-48
2022/10/07 06:00:56;;;;;;;45.28;35.63;;;17.80;1.00;;;;;;5083461;28;20044;-49
2022/10/07 06:03:24;;;;;;;46.20;36.53;;;17.90;1.00;;;;;;5080361;28;20362;-50
2022/10/07 06:05:51;;;;;;;45.67;36.03;;;17.90;1.00;;;;;;5083876;28;20028;-48
2022/10/07 06:08:19;;;;;;;44.55;34.20;;;17.90;1.00;;;;;;5087251;28;20012;-52
2022/10/07 06:13:33;;;;;;;44.92;34.97;;;17.90;1.00;;;;;;5090368;28;20043;-52
2022/10/07 06:16:06;;;;;;;43.08;35.30;;;17.90;1.00;;;;;;5086769;28;20036;-50
2022/10/07 06:25:50;;;;;;;46.28;34.28;;;18.00;1.00;;;;;;5078762;28;20031;-53
2022/10/07 06:28:16;;;;;;;47.70;36.50;;;18.00;1.00;;;;;;5085087;28;20093;-53
2022/10/07 06:30:41;;;;;;;49.22;36.03;;;18.00;1.00;;;;;;5091519;28;20055;-52
2022/10/07 06:33:07;;;;;;;42.05;33.22;;;17.90;1.00;;;;;;5091514;28;20110;-52
2022/10/07 06:35:32;;;;;;;41.95;34.08;;;17.90;1.00;;;;;;5089777;28;20500;-54
2022/10/07 06:37:58;;;;;;;45.47;34.00;;;17.90;1.00;;;;;;5086277;28;20040;-52
2022/10/07 06:40:24;;;;;;;44.75;35.25;;;18.00;1.00;;;;;;5079352;28;20466;-50
2022/10/07 06:42:49;;;;;;;43.33;35.15;;;18.00;1.00;;;;;;5080394;28;20101;-53
2022/10/07 06:45:15;;;;;;;49.33;34.33;;;18.00;1.00;;;;;;5092081;28;20316;-50
2022/10/07 06:47:40;;;;;;;45.65;33.42;;;18.00;1.00;;;;;;5090500;28;20120;-48
2022/10/07 06:50:06;;;;;;;50.20;36.08;;;18.10;1.00;;;;;;5092574;28;20097;-50
2022/10/07 06:52:32;;;;;;;42.83;34.28;;;18.10;1.00;;;;;;5080207;28;20052;-49
2022/10/07 06:54:58;;;;;;;48.92;36.17;;;18.10;1.00;;;;;;5092061;28;20430;-48
2022/10/07 06:57:23;;;;;;;42.95;35.33;;;18.10;1.00;;;;;;5090568;28;20020;-48
2022/10/07 06:59:49;;;;;;;47.22;34.47;;;18.10;1.00;;;;;;5092581;28;20024;-50
2022/10/07 07:02:14;;;;;;;46.20;34.47;;;18.20;1.00;;;;;;5083045;28;20021;-51
2022/10/07 07:04:40;;;;;;;40.72;33.45;;;18.10;1.00;;;;;;5088502;28;20024;-51
2022/10/07 07:07:06;;;;;;;44.47;34.08;;;18.20;1.00;;;;;;5077608;28;20470;-52
2022/10/07 07:09:32;;;;;;;40.80;31.45;;;18.30;1.00;;;;;;5092416;28;20028;-55
2022/10/07 07:11:58;;;;;;;45.88;32.92;;;18.30;1.00;;;;;;5088455;28;20048;-46
2022/10/07 07:14:24;;;;;;;45.33;35.60;;;18.40;1.00;;;;;;5091736;28;20086;-50
2022/10/07 07:16:51;;;;;;;44.30;33.63;;;18.30;1.00;;;;;;5090292;28;20030;-51
2022/10/07 07:19:16;;;;;;;43.28;34.70;;;18.40;1.00;;;;;;5090388;28;20124;-53
2022/10/07 07:21:42;;;;;;;40.78;33.78;;;18.40;1.00;;;;;;5088432;28;20103;-49
2022/10/07 07:24:08;;;;;;;40.63;34.55;;;18.40;1.00;;;;;;5082765;28;20085;-50
2022/10/07 07:26:36;;;;;;;49.42;38.55;;;18.50;1.00;;;;;;5085061;28;20510;-50
2022/10/07 07:29:06;;;;;;;46.50;34.38;;;18.40;1.00;;;;;;5081953;28;20056;-49
2022/10/07 07:31:34;;;;;;;41.63;35.28;;;18.50;1.00;;;;;;5080688;28;20059;-52
2022/10/07 07:34:01;;;;;;;47.20;36.63;;;18.50;1.00;;;;;;5080757;28;20127;-47
2022/10/07 07:36:29;;;;;;;46.03;36.65;;;18.50;1.00;;;;;;5081874;28;20025;-54
2022/10/07 07:38:58;;;;;;;46.75;37.35;;;18.60;1.00;;;;;;5090045;28;20032;-56
2022/10/07 07:41:30;;;;;;;47.80;37.15;;;18.60;1.00;;;;;;5086116;28;20538;-48
2022/10/07 07:43:58;;;;;;;47.53;38.55;;;18.60;1.00;;;;;;5088135;28;20533;-52
2022/10/07 07:46:28;;;;;;;50.45;38.67;;;18.70;1.00;;;;;;5086071;28;20039;-50
2022/10/07 07:48:54;;;;;;;52.55;39.00;;;18.70;1.00;;;;;;5090593;28;20020;-54
2022/10/07 07:51:21;;;;;;;56.53;41.40;;;18.70;1.00;;;;;;5090476;28;20027;-54
2022/10/07 07:53:51;;;;;;;56.67;42.40;;;18.70;1.00;;;;;;5089053;28;20052;-53
2022/10/07 07:56:19;;;;;;;53.60;41.75;;;18.80;1.00;;;;;;5088463;28;20146;-53
2022/10/07 07:58:46;;;;;;;55.03;41.40;;;18.80;1.00;;;;;;5088660;28;20469;-52
2022/10/07 08:01:15;;;;;;;55.05;41.97;;;18.80;1.00;;;;;;5095131;28;20055;-52
2022/10/07 08:03:43;;;;;;;51.42;39.38;;;18.80;1.00;;;;;;5097418;28;20062;-52
2022/10/07 08:06:10;;;;;;;50.90;38.10;;;18.80;1.00;;;;;;5096830;28;20024;-49
2022/10/07 08:08:37;;;;;;;48.78;38.10;;;18.90;1.00;;;;;;5095691;28;20055;-51
2022/10/07 08:11:10;;;;;;;60.70;39.17;;;18.90;1.00;;;;;;5091464;28;20541;-47
2022/10/07 08:13:38;;;;;;;54.17;41.88;;;19.00;1.00;;;;;;5097490;28;20058;-48
2022/10/07 08:16:03;;;;;;;46.35;38.58;;;19.00;1.00;;;;;;5090823;28;20020;-49
2022/10/07 08:18:30;;;;;;;51.22;38.05;;;18.90;1.00;;;;;;5092904;28;20043;-48
2022/10/07 08:21:01;;;;;;;57.17;41.38;;;19.00;1.00;;;;;;5096753;28;20024;-47
2022/10/07 08:23:29;;;;;;;50.25;37.80;;;19.00;1.00;;;;;;5091248;28;20080;-50
2022/10/07 08:25:55;;;;;;;51.83;38.53;;;19.00;1.00;;;;;;5095256;28;20449;-50
2022/10/07 08:28:22;;;;;;;50.05;38.10;;;19.10;1.00;;;;;;5085688;28;20039;-52
2022/10/07 08:30:49;;;;;;;49.33;37.20;;;19.10;1.00;;;;;;5097423;27;20497;-46
2022/10/07 08:33:17;;;;;;;52.33;41.17;;;19.10;1.00;;;;;;5089934;28;20134;-47
2022/10/07 08:35:43;;;;;;;47.28;38.80;;;19.10;1.00;;;;;;5093043;28;20047;-48
2022/10/07 08:38:08;;;;;;;51.67;40.55;;;19.10;1.00;;;;;;5091720;28;20032;-50
2022/10/07 08:40:35;;;;;;;51.20;39.25;;;19.20;1.00;;;;;;5094816;28;20028;-49
2022/10/07 08:43:02;;;;;;;48.88;39.58;;;19.20;1.00;;;;;;5091546;28;20032;-51
2022/10/07 08:45:32;;;;;;;51.50;41.00;;;19.20;1.00;;;;;;5096246;28;20016;-50
2022/10/07 08:48:06;;;;;;;52.13;42.22;;;19.30;1.00;;;;;;5096304;28;20042;-49
2022/10/07 08:50:54;;;;;;;55.75;43.53;;;19.30;1.00;;;;;;5093845;28;20032;-53
2022/10/07 08:53:27;;;;;;;56.97;43.40;;;19.30;1.00;;;;;;5093440;28;20511;-53
2022/10/07 08:56:08;;;;;;;57.40;43.83;;;19.40;1.00;;;;;;5092561;28;20023;-49
2022/10/07 08:59:02;;;;;;;52.75;41.03;;;19.40;1.00;;;;;;5088289;28;20040;-49
2022/10/07 09:01:51;;;;;;;53.22;40.40;;;19.40;1.00;;;;;;5089717;28;20051;-48
2022/10/07 09:04:25;;;;;;;50.13;39.50;;;19.50;1.00;;;;;;5078210;28;20111;-47
2022/10/07 09:06:55;;;;;;;52.53;40.35;;;19.50;1.00;;;;;;5094335;28;20024;-51
2022/10/07 09:09:29;;;;;;;55.05;41.00;;;19.50;1.00;;;;;;5092090;28;20519;-50
2022/10/07 09:11:56;;;;;;;53.80;40.08;;;19.60;1.00;;;;;;5091558;28;20043;-49
2022/10/07 09:14:34;;;;;;;57.05;42.42;;;19.60;1.00;;;;;;5090181;28;20038;-48
2022/10/07 09:17:19;;;;;;;53.72;43.42;;;19.60;1.00;;;;;;5091767;28;20043;-54
2022/10/07 09:19:48;;;;;;;53.45;42.10;;;19.70;1.00;;;;;;5090061;28;20040;-51
2022/10/07 09:22:29;;;;;;;53.08;41.22;;;19.70;1.00;;;;;;5093904;28;20020;-47
2022/10/07 09:25:15;;;;;;;51.50;40.30;;;19.70;1.00;;;;;;5091523;28;20166;-50
2022/10/07 09:27:41;;;;;;;49.67;41.88;;;19.80;1.00;;;;;;5080249;28;20482;-52
2022/10/07 09:30:12;;;;;;;54.30;43.00;;;19.80;1.00;;;;;;5091420;28;20032;-50
2022/10/07 09:32:41;;;;;;;52.95;42.25;;;19.80;1.00;;;;;;5090459;28;20057;-48
2022/10/07 09:35:12;;;;;;;53.10;43.05;;;19.90;1.00;;;;;;5093775;28;20026;-52
2022/10/07 09:37:56;;;;;;;50.75;41.38;;;19.90;1.00;;;;;;5091246;28;20020;-47
2022/10/07 09:43:32;;;;;;;50.67;40.30;;;20.00;1.00;;;;;;5083003;28;20043;-47
2022/10/07 09:45:59;;;;;;;57.67;43.10;;;20.10;1.00;;;;;;5078246;28;20024;-52
2022/10/07 09:48:32;;;;;;;51.63;40.55;;;20.10;1.00;;;;;;5087117;28;20024;-48
2022/10/07 09:51:15;;;;;;;46.60;38.97;;;20.20;1.00;;;;;;5087694;28;20107;-47
2022/10/07 09:54:03;;;;;;;50.25;40.10;;;20.20;1.00;;;;;;5086922;28;20043;-53
2022/10/07 09:56:43;;;;;;;52.47;42.28;;;20.20;1.00;;;;;;5082100;28;20016;-48
2022/10/07 09:59:27;;;;;;;50.58;38.35;;;20.20;1.00;;;;;;5084254;28;20032;-50
2022/10/07 10:02:02;;;;;;;50.20;39.80;;;20.30;1.00;;;;;;5091183;28;20077;-56
2022/10/07 10:04:34;;;;;;;50.40;41.38;;;20.50;1.00;;;;;;5091626;28;20024;-44
2022/10/07 10:07:14;;;;;;;46.80;39.97;;;20.50;1.00;;;;;;5086986;28;20059;-45
2022/10/07 10:09:48;;;;;;;55.00;42.50;;;20.40;1.00;;;;;;5091650;28;20035;-47
2022/10/07 10:12:14;;;;;;;46.90;38.03;;;20.50;1.00;;;;;;5086404;28;20053;-46
2022/10/07 10:14:46;;;;;;;48.30;38.80;;;20.50;1.00;;;;;;5090452;28;20858;-47
2022/10/07 10:17:28;;;;;;;46.55;37.17;;;20.60;1.00;;;;;;5082668;28;20024;-46
2022/10/07 10:19:55;;;;;;;50.10;38.63;;;20.70;1.00;;;;;;5085452;28;20028;-46
2022/10/07 10:22:26;;;;;;;49.08;40.10;;;20.80;1.00;;;;;;5088590;28;20080;-53
2022/10/07 10:28:03;;;;;;;46.22;40.95;;;20.80;1.00;;;;;;5091892;28;20035;-50
2022/10/07 10:30:30;;;;;;;47.03;37.38;;;20.80;1.00;;;;;;5091197;28;20407;-54
2022/10/07 10:33:17;;;;;;;49.00;39.92;;;20.80;1.00;;;;;;5086282;28;20032;-50
2022/10/07 10:36:08;;;;;;;41.38;34.35;;;20.90;1.00;;;;;;5089470;28;20032;-52
2022/10/07 10:39:00;;;;;;;45.90;37.97;;;21.00;1.00;;;;;;5083393;28;20036;-53
2022/10/07 10:41:44;;;;;;;53.80;40.90;;;21.00;1.00;;;;;;5086047;28;20054;-55
2022/10/07 10:44:19;;;;;;;48.75;40.53;;;21.20;1.00;;;;;;5083975;28;20394;-57
2022/10/07 10:46:59;;;;;;;47.70;38.03;;;21.10;1.00;;;;;;5073680;28;20086;-59
2022/10/07 10:49:34;;;;;;;49.38;38.70;;;21.20;1.00;;;;;;5090900;28;20031;-49
2022/10/07 10:52:16;;;;;;;;;;;21.30;1.00;;;;;;5084404;28;20374;-67
2022/10/07 10:55:12;;;;;;;50.35;38.28;;;21.20;1.00;;;;;;5082106;28;19925;-56
2022/10/07 10:58:05;;;;;;;44.95;36.05;;;21.30;1.00;;;;;;5088627;28;20482;-53
2022/10/07 11:00:43;;;;;;;44.83;36.25;;;21.40;1.00;;;;;;5086090;28;20021;-55
2022/10/07 11:03:39;;;;;;;40.85;35.47;;;21.50;1.00;;;;;;5078518;28;20367;-51
2022/10/07 11:06:09;;;;;;;47.53;35.42;;;21.60;1.00;;;;;;5086433;28;20124;-51
2022/10/07 11:08:37;;;;;;;45.42;35.65;;;21.60;1.00;;;;;;5087373;28;20035;-52
2022/10/07 11:11:14;;;;;;;45.10;34.55;;;21.60;1.00;;;;;;5079465;28;20032;-55
2022/10/07 11:13:39;;;;;;;38.30;31.70;;;21.70;1.00;;;;;;5090773;28;20024;-53
2022/10/07 11:16:35;;;;;;;37.95;32.70;;;21.90;1.00;;;;;;5088046;28;20024;-54
2022/10/07 11:19:22;;;;;;;39.90;34.15;;;21.80;1.00;;;;;;5087724;28;20036;-53
2022/10/07 11:21:53;;;;;;;41.33;30.70;;;21.80;1.00;;;;;;5091628;28;20024;-57
2022/10/07 11:24:27;;;;;;;48.60;37.28;;;21.80;1.00;;;;;;5088043;28;20377;-54
2022/10/07 11:27:00;;;;;;;41.42;31.42;;;22.00;1.00;;;;;;5088448;28;20063;-51
2022/10/07 11:29:34;;;;;;;34.78;28.75;;;22.00;1.00;;;;;;5084350;28;20032;-49
2022/10/07 11:32:27;;;;;;;36.22;28.23;;;22.10;1.00;;;;;;5082621;28;20111;-53
2022/10/07 11:35:27;;;;;;;38.80;31.08;;;22.20;1.00;;;;;;5073678;28;20486;-54
2022/10/07 11:38:17;;;;;;;38.53;31.08;;;22.20;1.00;;;;;;5089221;28;20044;-50
2022/10/07 11:40:52;;;;;;;41.53;33.67;;;22.20;1.00;;;;;;5086148;28;20106;-51
2022/10/07 11:43:32;;;;;;;38.38;30.00;;;22.20;1.00;;;;;;5092248;28;20060;-51
2022/10/07 11:46:20;;;;;;;41.53;32.17;;;22.30;1.00;;;;;;5078293;28;20061;-54
2022/10/07 11:48:59;;;;;;;42.67;32.75;;;22.40;1.00;;;;;;5084330;28;20073;-50
2022/10/07 11:51:33;;;;;;;43.90;34.55;;;22.50;1.00;;;;;;5074534;28;20024;-52
2022/10/07 11:54:01;;;;;;;47.15;34.47;;;22.60;1.00;;;;;;5080668;28;20115;-52
2022/10/07 11:56:50;;;;;;;37.90;31.80;;;22.70;1.00;;;;;;5085672;28;20040;-52
2022/10/07 11:59:34;;;;;;;35.25;29.13;;;22.70;1.00;;;;;;5080381;28;20059;-50
2022/10/07 12:02:00;;;;;;;35.67;30.63;;;22.80;1.00;;;;;;5090357;28;20049;-53
2022/10/07 12:04:28;;;;;;;37.55;30.15;;;22.80;1.00;;;;;;5083410;28;20032;-56
2022/10/07 12:07:32;;;;;;;37.55;29.60;;;22.90;1.00;;;;;;5090281;28;20031;-50
2022/10/07 12:10:03;;;;;;;41.90;31.45;;;23.10;1.00;;;;;;5084812;28;20024;-61
2022/10/07 12:12:41;;;;;;;32.95;26.25;;;23.10;1.00;;;;;;5084243;28;20030;-63
2022/10/07 12:15:30;;;;;;;34.78;27.90;;;23.20;1.00;;;;;;5083769;28;20044;-63
2022/10/07 12:18:22;;;;;;;27.38;23.55;;;23.40;1.00;;;;;;5088101;28;20040;-47
2022/10/07 12:20:48;;;;;;;28.45;22.70;;;23.60;1.00;;;;;;5087474;28;20484;-48
2022/10/07 12:23:20;;;;;;;28.02;22.80;;;23.60;1.00;;;;;;5088220;28;20056;-48
2022/10/07 12:25:58;;;;;;;28.58;23.42;;;23.60;1.00;;;;;;5090398;28;20024;-54
2022/10/07 12:28:29;;;;;;;27.73;22.70;;;23.60;1.00;;;;;;5089686;28;20158;-56
2022/10/07 12:31:01;;;;;;;24.80;20.77;;;23.60;1.00;;;;;;5087308;28;20038;-55
2022/10/07 12:33:55;;;;;;;23.35;20.35;;;23.60;1.00;;;;;;5093630;28;20319;-58
2022/10/07 12:36:26;;;;;;;28.17;21.58;;;23.70;1.00;;;;;;5087920;28;20024;-58
2022/10/07 12:38:55;;;;;;;21.48;19.05;;;23.70;1.00;;;;;;5081946;28;20045;-56
2022/10/07 12:41:27;;;;;;;24.77;19.23;;;23.70;1.00;;;;;;5075659;28;20036;-56
2022/10/07 12:44:17;;;;;;;23.88;21.25;;;23.80;1.00;;;;;;5076772;28;20104;-55
2022/10/07 12:46:50;;;;;;;24.63;20.60;;;23.80;1.00;;;;;;5080268;28;20032;-53
2022/10/07 12:49:19;;;;;;;20.27;17.92;;;24.00;1.00;;;;;;5083522;28;20024;-54
2022/10/07 12:51:44;;;;;;;21.63;19.05;;;24.00;1.00;;;;;;5091696;28;20036;-55
2022/10/07 12:54:30;;;;;;;19.30;16.42;;;24.10;1.00;;;;;;5094491;28;20016;-56
2022/10/07 12:56:55;;;;;;;22.25;16.20;;;24.20;1.00;;;;;;5092134;28;20024;-54
2022/10/07 12:59:48;;;;;;;21.05;18.73;;;24.20;1.00;;;;;;5094187;28;20046;-50
2022/10/07 13:02:32;;;;;;;23.30;16.45;;;24.30;1.00;;;;;;5091543;28;20386;-51
2022/10/07 13:05:16;;;;;;;;;;;24.20;1.00;;;;;;5090365;28;20162;-51
2022/10/07 13:08:06;;;;;;;17.73;15.82;;;24.20;1.00;;;;;;5092172;28;19919;-53
2022/10/07 13:10:46;;;;;;;18.42;16.52;;;24.30;1.00;;;;;;5091310;28;20040;-52
2022/10/07 13:13:36;;;;;;;18.95;16.20;;;24.30;1.00;;;;;;5089786;28;20122;-56
2022/10/07 13:16:14;;;;;;;17.20;15.50;;;24.30;1.00;;;;;;5086817;28;20077;-50
2022/10/07 13:18:45;;;;;;;18.80;16.85;;;24.10;1.00;;;;;;5083778;28;20115;-52
2022/10/07 13:21:28;;;;;;;17.15;15.32;;;24.00;1.00;;;;;;5093973;28;20520;-56
2022/10/07 13:23:55;;;;;;;17.27;14.77;;;24.00;1.00;;;;;;5084391;28;20044;-59
2022/10/07 13:26:25;;;;;;;18.95;16.23;;;24.10;1.00;;;;;;5085396;28;20016;-56